Time;durP1;ratioP1;P1;durP2;ratioP2;P2;SDS_P1;SDS_P2;PMS_P1;PMS_P2;Temp;Humidity;BMP_temperature;BMP_pressure;BME280_temperature;BME280_humidity;BME280_pressure;Samples;Min_cycle;Max_cycle;Signal;HPM_P1;HPM_P2
2023/05/22 00:02:17;;;;;;;;;18.75;15.75;;;;;;;;5071371;28;8771;-72
2023/05/22 00:04:43;;;;;;;;;18.50;16.25;;;;;;;;5071226;28;9572;-72
2023/05/22 00:07:08;;;;;;;;;19.50;16.50;;;;;;;;5071433;28;8775;-71
2023/05/22 00:09:33;;;;;;;;;13.25;12.75;;;;;;;;5071289;28;8806;-73
2023/05/22 00:11:59;;;;;;;;;19.75;18.00;;;;;;;;5070931;28;8822;-71
2023/05/22 00:14:24;;;;;;;;;18.00;16.00;;;;;;;;5071063;28;8792;-72
2023/05/22 00:16:49;;;;;;;;;23.25;21.00;;;;;;;;5069649;28;8826;-71
2023/05/22 00:19:15;;;;;;;;;26.25;23.50;;;;;;;;5070929;28;8795;-73
2023/05/22 00:21:44;;;;;;;;;24.00;22.50;;;;;;;;5071069;28;9585;-73
2023/05/22 00:24:09;;;;;;;;;22.75;20.00;;;;;;;;5070883;28;8799;-72
2023/05/22 00:26:34;;;;;;;;;22.00;20.00;;;;;;;;5070750;28;11487;-73
2023/05/22 00:29:00;;;;;;;;;25.00;21.00;;;;;;;;5070646;28;8856;-74
2023/05/22 00:31:25;;;;;;;;;20.50;19.00;;;;;;;;5070907;28;9609;-74
2023/05/22 00:33:50;;;;;;;;;24.00;20.75;;;;;;;;5069348;28;8838;-74
2023/05/22 00:36:17;;;;;;;;;26.50;22.00;;;;;;;;5070489;28;8826;-74
2023/05/22 00:38:42;;;;;;;;;27.50;21.00;;;;;;;;5069544;28;8822;-74
2023/05/22 00:41:08;;;;;;;;;21.75;20.25;;;;;;;;5070532;28;11463;-73
2023/05/22 00:43:33;;;;;;;;;21.50;21.00;;;;;;;;5070720;28;8785;-73
2023/05/22 00:45:58;;;;;;;;;25.00;22.75;;;;;;;;5070763;28;8810;-74
2023/05/22 00:48:24;;;;;;;;;20.50;20.00;;;;;;;;5070853;28;9769;-73
2023/05/22 00:50:50;;;;;;;;;22.50;21.00;;;;;;;;5070727;28;8814;-73
2023/05/22 00:53:15;;;;;;;;;25.75;20.75;;;;;;;;5070636;28;8799;-74
2023/05/22 00:55:42;;;;;;;;;22.50;19.75;;;;;;;;5070545;28;8830;-74
2023/05/22 00:58:09;;;;;;;;;26.50;23.50;;;;;;;;5070628;28;8824;-74
2023/05/22 01:00:35;;;;;;;;;23.25;19.75;;;;;;;;5070393;28;11488;-73
2023/05/22 01:03:02;;;;;;;;;21.50;19.00;;;;;;;;5070173;28;11463;-73
2023/05/22 01:05:27;;;;;;;;;23.25;21.00;;;;;;;;5069005;28;11485;-74
2023/05/22 01:07:53;;;;;;;;;23.50;21.75;;;;;;;;5070147;28;11418;-74
2023/05/22 01:10:18;;;;;;;;;25.25;22.00;;;;;;;;5070447;28;8771;-73
2023/05/22 01:12:43;;;;;;;;;21.25;18.25;;;;;;;;5069172;28;8868;-73
2023/05/22 01:15:27;;;;;;;;;24.75;21.00;;;;;;;;5070350;28;8774;-73
2023/05/22 01:18:03;;;;;;;;;20.75;20.50;;;;;;;;5070611;28;9541;-74
2023/05/22 01:20:41;;;;;;;;;19.75;18.75;;;;;;;;5068604;28;11466;-74
2023/05/22 01:23:13;;;;;;;;;26.25;23.00;;;;;;;;5068704;28;11444;-73
2023/05/22 01:25:48;;;;;;;;;22.75;19.75;;;;;;;;5070252;28;11438;-73
2023/05/22 01:28:31;;;;;;;;;23.00;23.00;;;;;;;;5068893;28;11471;-74
2023/05/22 01:30:59;;;;;;;;;28.25;25.75;;;;;;;;5070119;28;11517;-73
2023/05/22 01:33:26;;;;;;;;;25.00;22.75;;;;;;;;5070028;28;11451;-73
2023/05/22 01:35:53;;;;;;;;;20.00;20.00;;;;;;;;5070009;28;11501;-73
2023/05/22 01:38:18;;;;;;;;;26.25;24.75;;;;;;;;5070047;28;11421;-73
2023/05/22 01:40:45;;;;;;;;;24.75;23.25;;;;;;;;5068688;28;11473;-73
2023/05/22 01:43:12;;;;;;;;;26.50;23.00;;;;;;;;5070226;28;8810;-73
2023/05/22 01:45:37;;;;;;;;;21.50;19.50;;;;;;;;5069776;28;11439;-73
2023/05/22 01:48:02;;;;;;;;;22.75;21.25;;;;;;;;5069814;28;11472;-72
2023/05/22 01:50:28;;;;;;;;;24.50;22.50;;;;;;;;5070006;28;8833;-73
2023/05/22 01:52:56;;;;;;;;;30.00;22.50;;;;;;;;5070010;28;8805;-73
2023/05/22 01:55:28;;;;;;;;;25.50;25.25;;;;;;;;5070089;28;9505;-74
2023/05/22 01:57:53;;;;;;;;;28.50;22.25;;;;;;;;5070112;28;11458;-74
2023/05/22 02:00:20;;;;;;;;;26.00;25.50;;;;;;;;5069760;28;11528;-74
2023/05/22 02:02:50;;;;;;;;;27.00;20.00;;;;;;;;5069907;28;8791;-74
2023/05/22 02:05:17;;;;;;;;;26.75;21.00;;;;;;;;5069735;28;12362;-74
2023/05/22 02:07:43;;;;;;;;;3.75;3.00;;;;;;;;5069894;28;11424;-74
2023/05/22 02:10:09;;;;;;;;;23.50;21.50;;;;;;;;5069791;28;11431;-74
2023/05/22 02:12:35;;;;;;;;;25.00;23.50;;;;;;;;5069792;28;8799;-73
2023/05/22 02:15:00;;;;;;;;;26.50;23.50;;;;;;;;5068210;28;11484;-74
2023/05/22 02:17:26;;;;;;;;;21.25;20.25;;;;;;;;5070047;28;8814;-73
2023/05/22 02:19:51;;;;;;;;;23.75;21.50;;;;;;;;5072033;28;8794;-73
2023/05/22 02:22:16;;;;;;;;;20.50;18.75;;;;;;;;5073308;28;8782;-73
2023/05/22 02:24:44;;;;;;;;;26.75;20.50;;;;;;;;5073136;28;9620;-73
2023/05/22 02:27:10;;;;;;;;;27.50;21.25;;;;;;;;5073232;28;8827;-73
2023/05/22 02:29:35;;;;;;;;;27.25;24.25;;;;;;;;5072951;28;11418;-73
2023/05/22 02:32:01;;;;;;;;;25.00;21.25;;;;;;;;5073088;28;8775;-73
2023/05/22 02:34:26;;;;;;;;;25.25;21.25;;;;;;;;5073096;28;8887;-73
2023/05/22 02:36:51;;;;;;;;;21.00;19.75;;;;;;;;5073166;28;8791;-73
2023/05/22 02:39:17;;;;;;;;;24.50;23.00;;;;;;;;5072941;28;8782;-73
2023/05/22 02:41:43;;;;;;;;;24.25;22.75;;;;;;;;5072874;28;9571;-73
2023/05/22 02:44:08;;;;;;;;;21.50;19.50;;;;;;;;5072642;28;11504;-72
2023/05/22 02:46:33;;;;;;;;;25.00;19.25;;;;;;;;5072994;28;8923;-73
2023/05/22 02:48:58;;;;;;;;;26.25;24.75;;;;;;;;5072725;28;8795;-73
2023/05/22 02:51:24;;;;;;;;;24.00;24.00;;;;;;;;5072635;28;8790;-73
2023/05/22 02:53:49;;;;;;;;;21.00;21.00;;;;;;;;5072486;28;8774;-73
2023/05/22 02:56:14;;;;;;;;;27.00;22.50;;;;;;;;5072588;28;8798;-73
2023/05/22 02:58:40;;;;;;;;;18.50;16.25;;;;;;;;5072455;28;8901;-73
2023/05/22 03:01:05;;;;;;;;;25.00;22.25;;;;;;;;5072514;28;8786;-73
2023/05/22 03:03:31;;;;;;;;;26.25;26.00;;;;;;;;5072463;28;8806;-73
2023/05/22 03:05:57;;;;;;;;;28.75;27.75;;;;;;;;5072319;28;9553;-73
2023/05/22 03:08:23;;;;;;;;;20.75;19.50;;;;;;;;5072197;28;8802;-73
2023/05/22 03:10:48;;;;;;;;;21.00;21.00;;;;;;;;5072420;28;8799;-73
2023/05/22 03:13:13;;;;;;;;;29.75;24.00;;;;;;;;5072316;28;8840;-73
2023/05/22 03:15:38;;;;;;;;;24.25;23.00;;;;;;;;5072193;28;8779;-73
2023/05/22 03:18:04;;;;;;;;;24.00;21.50;;;;;;;;5072542;28;9761;-73
2023/05/22 03:20:30;;;;;;;;;22.50;20.75;;;;;;;;5068691;28;8802;-73
2023/05/22 03:22:55;;;;;;;;;27.00;23.25;;;;;;;;5069462;28;11551;-73
2023/05/22 03:25:23;;;;;;;;;25.50;23.00;;;;;;;;5070741;28;8865;-73
2023/05/22 03:27:48;;;;;;;;;22.25;19.75;;;;;;;;5070860;28;8782;-73
2023/05/22 03:30:14;;;;;;;;;22.25;21.75;;;;;;;;5070739;28;11518;-73
2023/05/22 03:32:42;;;;;;;;;25.00;23.00;;;;;;;;5070648;28;9506;-72
2023/05/22 03:35:08;;;;;;;;;25.00;23.50;;;;;;;;5070810;28;8787;-72
2023/05/22 03:37:33;;;;;;;;;30.50;24.75;;;;;;;;5070375;28;11489;-72
2023/05/22 03:39:58;;;;;;;;;23.50;19.75;;;;;;;;5070727;28;8803;-73
2023/05/22 03:42:24;;;;;;;;;23.25;22.25;;;;;;;;5070277;28;8851;-72
2023/05/22 03:44:49;;;;;;;;;24.25;24.00;;;;;;;;5070212;28;8794;-72
2023/05/22 03:47:15;;;;;;;;;25.00;18.75;;;;;;;;5070260;28;8806;-72
2023/05/22 03:49:40;;;;;;;;;21.50;21.50;;;;;;;;5070389;28;8799;-72
2023/05/22 03:52:08;;;;;;;;;24.75;23.00;;;;;;;;5070322;28;8856;-73
2023/05/22 03:54:33;;;;;;;;;22.50;19.25;;;;;;;;5070062;28;8872;-73
2023/05/22 03:57:02;;;;;;;;;25.25;20.50;;;;;;;;5070009;28;11473;-71
2023/05/22 03:59:30;;;;;;;;;25.25;22.50;;;;;;;;5070107;28;8786;-73
2023/05/22 04:01:56;;;;;;;;;19.25;18.75;;;;;;;;5069873;28;11426;-73
2023/05/22 04:04:22;;;;;;;;;26.25;21.00;;;;;;;;5068822;28;11603;-72
2023/05/22 04:06:48;;;;;;;;;24.00;20.00;;;;;;;;5067824;28;11602;-73
2023/05/22 04:09:13;;;;;;;;;24.75;24.75;;;;;;;;5069873;28;9545;-73
2023/05/22 04:11:40;;;;;;;;;24.25;23.00;;;;;;;;5069611;28;11601;-73
2023/05/22 04:14:06;;;;;;;;;25.00;22.00;;;;;;;;5069737;28;8794;-73
2023/05/22 04:16:32;;;;;;;;;24.25;23.00;;;;;;;;5069431;28;11487;-73
2023/05/22 04:18:57;;;;;;;;;23.50;23.00;;;;;;;;5069959;28;8779;-73
2023/05/22 04:21:26;;;;;;;;;26.50;24.75;;;;;;;;5069829;28;8807;-73
2023/05/22 04:23:51;;;;;;;;;24.75;22.25;;;;;;;;5069716;28;8826;-73
2023/05/22 04:26:19;;;;;;;;;22.75;22.75;;;;;;;;5069399;28;11478;-74
